Maria Stein, Ohio
Current Conditions -  °F | °C
As of 3:31 PM on Sunday 25 Jan 2015 (Local Time) from KAXV Reporting Station
Light Snow Light Snow  
Wind Chill: 20°   Ceiling: 800
Heat Index: 30°   Visibility: 1.7mi
Dew Point: 30°   Wind: 14mph
Humidity: 100%   Direction: 50°NE
Pressure: 29.72"   Gusts: 22mph
Location:  40.41°N, 84.49°W
Report Text: KAXV 252031Z AUTO 05012G19KT 1 3/4SM -SN OVC008 M01/M01 A2972 RMK AO2
Loading
Personal Weather Stations






























Interactive Weather Map New forecast layout! Learn more

10-Day Weather Forecast

Advertisements
Track Severe Weather on mobile